Time;durP1;ratioP1;P1;durP2;ratioP2;P2;SDS_P1;SDS_P2;PMS_P1;PMS_P2;Temp;Humidity;BMP_temperature;BMP_pressure;BME280_temperature;BME280_humidity;BME280_pressure;Samples;Min_cycle;Max_cycle;Signal;HPM_P1;HPM_P2
2021/10/17 00:02:22;;;;;;;21.45;16.52;;;10.90;99.90;;;;;;5034026;28;20049;-71
2021/10/17 00:04:49;;;;;;;20.70;15.45;;;10.90;99.90;;;;;;5047887;28;20041;-70
2021/10/17 00:07:16;;;;;;;22.38;14.55;;;10.90;99.90;;;;;;5049498;28;20118;-69
2021/10/17 00:09:43;;;;;;;23.38;15.90;;;10.90;99.90;;;;;;5049054;28;20380;-70
2021/10/17 00:12:11;;;;;;;23.08;17.00;;;10.80;99.90;;;;;;5032840;28;20132;-71
2021/10/17 00:14:38;;;;;;;21.05;15.20;;;10.80;99.90;;;;;;5048879;28;20159;-71
2021/10/17 00:17:05;;;;;;;22.42;14.80;;;10.80;99.90;;;;;;5048757;28;20132;-71
2021/10/17 00:19:32;;;;;;;22.15;14.52;;;10.80;99.90;;;;;;5031389;28;20045;-70
2021/10/17 00:21:59;;;;;;;20.63;14.23;;;10.70;99.90;;;;;;5032442;28;20049;-70
2021/10/17 00:24:26;;;;;;;20.65;14.90;;;10.70;99.90;;;;;;5048398;28;20120;-70
2021/10/17 00:26:53;;;;;;;20.40;15.35;;;10.70;99.90;;;;;;5049783;28;20077;-70
2021/10/17 00:29:20;;;;;;;25.13;15.63;;;10.60;99.90;;;;;;5048626;28;20056;-70
2021/10/17 00:31:47;;;;;;;22.88;16.15;;;10.60;99.90;;;;;;5050517;28;20049;-69
2021/10/17 00:34:14;;;;;;;22.60;16.30;;;10.60;99.90;;;;;;5048022;28;20051;-69
2021/10/17 00:36:41;;;;;;;20.83;16.15;;;10.60;99.90;;;;;;5048079;28;20095;-69
2021/10/17 00:39:08;;;;;;;27.70;18.30;;;10.60;99.90;;;;;;5047310;28;20055;-71
2021/10/17 00:41:35;;;;;;;27.50;18.58;;;10.60;99.90;;;;;;5048120;28;20128;-70
2021/10/17 00:44:02;;;;;;;28.58;16.70;;;10.60;99.90;;;;;;5047825;28;20044;-70
2021/10/17 00:46:29;;;;;;;23.30;16.60;;;10.60;99.90;;;;;;5032141;28;20184;-71
2021/10/17 00:48:56;;;;;;;20.55;16.27;;;10.60;99.90;;;;;;5048166;28;20499;-71
2021/10/17 00:51:23;;;;;;;23.27;16.45;;;10.60;99.90;;;;;;5048043;28;20056;-71
2021/10/17 00:53:50;;;;;;;21.63;16.65;;;10.60;99.90;;;;;;5048010;28;20053;-70
2021/10/17 00:56:18;;;;;;;23.05;17.10;;;10.60;99.90;;;;;;5047290;28;20124;-70
2021/10/17 00:58:45;;;;;;;24.17;15.88;;;10.60;99.90;;;;;;5047849;28;20059;-70
2021/10/17 01:01:12;;;;;;;18.60;14.02;;;10.60;99.90;;;;;;5055011;28;20082;-71
2021/10/17 01:03:39;;;;;;;23.65;16.73;;;10.60;99.90;;;;;;5057251;28;20044;-70
2021/10/17 01:06:11;;;;;;;25.15;17.00;;;10.60;99.90;;;;;;5047878;28;20140;-71
2021/10/17 01:08:39;;;;;;;20.75;15.10;;;10.60;99.90;;;;;;5031996;28;20052;-71
2021/10/17 01:11:08;;;;;;;24.65;17.20;;;10.60;99.90;;;;;;5048682;28;20139;-72
2021/10/17 01:13:36;;;;;;;20.47;16.00;;;10.60;99.90;;;;;;5031427;28;20068;-70
2021/10/17 01:16:03;;;;;;;23.15;16.73;;;10.60;99.90;;;;;;5050351;28;20119;-70
2021/10/17 01:18:31;;;;;;;23.05;16.58;;;10.70;99.90;;;;;;5031675;28;20052;-71
2021/10/17 01:20:58;;;;;;;24.63;16.25;;;10.70;99.90;;;;;;5053569;28;20124;-70
2021/10/17 01:23:24;;;;;;;23.02;14.75;;;10.60;99.90;;;;;;5032225;28;20132;-70
2021/10/17 01:25:51;;;;;;;20.92;16.10;;;10.60;99.90;;;;;;5049108;28;20049;-70
2021/10/17 01:28:18;;;;;;;19.73;15.00;;;10.60;99.90;;;;;;5047309;28;20437;-70
2021/10/17 01:30:46;;;;;;;20.95;16.30;;;10.60;99.90;;;;;;5051118;28;20087;-70
2021/10/17 01:33:13;;;;;;;21.55;17.10;;;10.70;99.90;;;;;;5050251;28;20147;-70
2021/10/17 01:35:41;;;;;;;19.85;15.07;;;10.70;99.90;;;;;;5031407;28;20049;-70
2021/10/17 01:38:09;;;;;;;23.67;16.10;;;10.70;99.90;;;;;;5048629;28;20071;-70
2021/10/17 01:40:37;;;;;;;20.67;15.98;;;10.80;99.90;;;;;;5040434;28;20037;-70
2021/10/17 01:43:04;;;;;;;18.83;14.23;;;10.80;99.90;;;;;;5028132;28;20095;-70
2021/10/17 01:45:31;;;;;;;19.27;14.85;;;10.80;99.90;;;;;;5030784;28;20055;-70
2021/10/17 01:47:59;;;;;;;18.42;14.88;;;10.80;99.90;;;;;;5048698;28;20049;-69
2021/10/17 01:50:26;;;;;;;17.27;14.48;;;10.80;99.90;;;;;;5048466;28;20045;-70
2021/10/17 01:52:53;;;;;;;26.17;13.00;;;10.70;99.80;;;;;;5027246;28;20091;-69
2021/10/17 01:55:20;;;;;;;21.38;15.02;;;10.70;99.80;;;;;;5043492;28;20111;-70
2021/10/17 01:57:47;;;;;;;19.85;14.07;;;10.60;99.70;;;;;;5047535;28;20572;-70
2021/10/17 02:00:14;;;;;;;19.73;14.98;;;10.60;99.90;;;;;;5032983;28;20053;-69
2021/10/17 02:02:41;;;;;;;19.95;15.25;;;10.50;99.90;;;;;;5039545;28;20049;-69
2021/10/17 02:05:08;;;;;;;23.42;15.73;;;10.50;99.90;;;;;;5050801;28;20124;-70
2021/10/17 02:07:35;;;;;;;19.58;13.70;;;10.50;99.90;;;;;;5050794;28;20045;-70
2021/10/17 02:10:04;;;;;;;21.55;13.10;;;10.40;99.90;;;;;;5052321;28;20083;-70
2021/10/17 02:12:31;;;;;;;16.85;13.52;;;10.40;99.90;;;;;;5050647;28;20045;-70
2021/10/17 02:14:59;;;;;;;18.05;12.85;;;10.30;99.90;;;;;;5051071;28;20045;-70
2021/10/17 02:17:30;;;;;;;19.00;14.15;;;10.30;99.90;;;;;;5050840;28;20053;-70
2021/10/17 02:19:57;;;;;;;23.55;14.77;;;10.30;99.90;;;;;;5052472;28;20045;-70
2021/10/17 02:22:24;;;;;;;17.42;12.77;;;10.30;99.90;;;;;;5052813;28;20057;-70
2021/10/17 02:24:51;;;;;;;17.23;13.93;;;10.30;99.90;;;;;;5051243;28;20051;-70
2021/10/17 02:27:18;;;;;;;17.42;13.10;;;10.30;99.90;;;;;;5050696;28;20057;-70
2021/10/17 02:29:45;;;;;;;18.95;14.45;;;10.30;99.90;;;;;;5052225;28;20045;-71
2021/10/17 02:32:12;;;;;;;20.75;14.02;;;10.40;99.90;;;;;;5066963;28;20055;-71
2021/10/17 02:34:39;;;;;;;21.42;14.02;;;10.40;99.90;;;;;;5052392;28;20049;-71
2021/10/17 02:37:06;;;;;;;16.27;13.07;;;10.50;99.90;;;;;;5051034;28;20536;-71
2021/10/17 02:39:33;;;;;;;17.33;13.93;;;10.60;99.90;;;;;;5033946;28;20128;-70
2021/10/17 02:42:00;;;;;;;23.08;13.75;;;10.60;99.90;;;;;;5050962;28;20385;-70
2021/10/17 02:44:27;;;;;;;21.70;14.20;;;10.70;99.90;;;;;;5051080;28;20504;-70
2021/10/17 02:46:54;;;;;;;20.95;14.68;;;10.70;99.90;;;;;;5050691;28;20080;-70
2021/10/17 02:49:21;;;;;;;20.17;15.40;;;10.80;99.90;;;;;;5053064;28;20048;-69
2021/10/17 02:51:48;;;;;;;21.20;14.38;;;10.80;99.90;;;;;;5050705;28;20052;-70
2021/10/17 02:54:17;;;;;;;19.27;13.95;;;10.90;99.90;;;;;;5051183;28;20132;-70
2021/10/17 02:56:44;;;;;;;19.55;13.93;;;11.00;99.90;;;;;;5050925;28;20041;-71
2021/10/17 02:59:11;;;;;;;21.65;15.35;;;11.10;99.90;;;;;;5051576;28;20476;-70
2021/10/17 03:01:38;;;;;;;27.08;16.48;;;11.20;99.90;;;;;;5059684;28;20055;-70
2021/10/17 03:04:07;;;;;;;24.65;15.20;;;11.20;99.90;;;;;;5035372;28;20049;-69
2021/10/17 03:06:34;;;;;;;24.75;17.88;;;11.30;99.90;;;;;;5050462;28;20099;-70
2021/10/17 03:09:01;;;;;;;20.45;15.88;;;11.40;99.90;;;;;;5050232;28;20060;-70
2021/10/17 03:11:28;;;;;;;22.75;16.92;;;11.40;99.90;;;;;;5065160;28;20580;-70
2021/10/17 03:13:55;;;;;;;21.35;15.77;;;11.50;99.90;;;;;;5051470;28;20486;-70
2021/10/17 03:16:22;;;;;;;23.83;16.90;;;11.50;99.90;;;;;;5049030;28;20085;-70
2021/10/17 03:18:49;;;;;;;25.73;17.73;;;11.50;99.90;;;;;;5049818;28;20432;-70
2021/10/17 03:21:16;;;;;;;21.58;15.65;;;11.60;99.90;;;;;;5051793;28;20104;-71
2021/10/17 03:23:43;;;;;;;18.80;14.15;;;11.60;99.90;;;;;;5035882;28;20045;-70
2021/10/17 03:26:10;;;;;;;20.42;16.50;;;11.60;99.90;;;;;;5049407;28;20053;-70
2021/10/17 03:28:37;;;;;;;22.50;15.68;;;11.60;99.90;;;;;;5032980;28;20523;-70
2021/10/17 03:31:06;;;;;;;24.00;16.23;;;11.60;99.90;;;;;;5050980;28;20061;-70
2021/10/17 03:33:34;;;;;;;27.48;16.10;;;11.70;99.90;;;;;;5036862;28;20053;-70
2021/10/17 03:36:01;;;;;;;23.40;16.92;;;11.70;99.90;;;;;;5032382;28;20548;-70
2021/10/17 03:38:28;;;;;;;25.17;18.33;;;11.70;99.90;;;;;;5040801;28;20366;-70
2021/10/17 03:40:55;;;;;;;26.35;19.80;;;11.70;99.90;;;;;;5058239;28;20488;-70
2021/10/17 03:43:22;;;;;;;25.02;18.00;;;11.80;99.90;;;;;;5056726;28;20044;-71
2021/10/17 03:45:49;;;;;;;25.90;18.35;;;11.80;99.90;;;;;;5030775;28;20045;-71
2021/10/17 03:48:16;;;;;;;27.70;17.20;;;11.90;99.90;;;;;;5048790;28;20045;-71
2021/10/17 03:50:44;;;;;;;27.58;16.70;;;11.90;99.90;;;;;;5048572;28;20284;-71
2021/10/17 03:53:11;;;;;;;23.55;17.73;;;11.90;99.90;;;;;;5031681;28;20528;-71
2021/10/17 03:55:38;;;;;;;20.85;16.35;;;11.90;99.90;;;;;;5049079;28;20076;-71
2021/10/17 03:58:05;;;;;;;24.50;16.95;;;11.90;99.90;;;;;;5050591;28;20053;-71
2021/10/17 04:00:32;;;;;;;22.27;16.20;;;12.00;99.90;;;;;;5048879;28;20055;-70
2021/10/17 04:02:59;;;;;;;22.77;16.33;;;12.00;99.90;;;;;;5054447;28;20044;-70
2021/10/17 04:05:26;;;;;;;24.17;16.40;;;12.00;99.90;;;;;;5032374;28;20091;-71
2021/10/17 04:07:53;;;;;;;20.45;15.82;;;12.00;99.90;;;;;;5049220;28;20079;-70
2021/10/17 04:10:20;;;;;;;20.65;15.25;;;11.90;99.90;;;;;;5051310;28;20144;-70
2021/10/17 04:12:47;;;;;;;22.10;15.55;;;11.90;99.90;;;;;;5050056;28;20563;-70
2021/10/17 04:15:14;;;;;;;19.88;15.48;;;11.90;99.90;;;;;;5031532;28;20068;-71
2021/10/17 04:17:41;;;;;;;19.35;14.38;;;11.90;99.90;;;;;;5048714;28;20560;-71
2021/10/17 04:20:08;;;;;;;20.17;14.10;;;11.90;99.90;;;;;;5048249;28;20045;-70
2021/10/17 04:22:35;;;;;;;19.02;13.82;;;11.90;99.90;;;;;;5039022;28;20057;-70
2021/10/17 04:25:03;;;;;;;23.30;14.60;;;11.90;99.90;;;;;;5046898;28;20493;-70
2021/10/17 04:27:30;;;;;;;20.77;14.93;;;11.90;99.90;;;;;;5031794;28;20125;-70
2021/10/17 04:29:57;;;;;;;22.77;15.35;;;11.90;99.90;;;;;;5048953;28;20051;-70
2021/10/17 04:32:24;;;;;;;19.80;14.52;;;11.90;99.90;;;;;;5054502;28;20045;-70
2021/10/17 04:34:51;;;;;;;28.05;17.00;;;11.90;99.90;;;;;;5031645;28;20077;-71
2021/10/17 04:37:18;;;;;;;19.88;14.20;;;11.90;99.90;;;;;;5048536;28;20504;-70
2021/10/17 04:39:45;;;;;;;19.23;14.43;;;11.90;99.90;;;;;;5048514;28;20139;-70
2021/10/17 04:42:12;;;;;;;17.40;14.43;;;11.90;99.90;;;;;;5012819;28;20053;-72
2021/10/17 04:44:39;;;;;;;16.55;14.23;;;11.80;99.90;;;;;;5031183;28;20396;-70
2021/10/17 04:47:06;;;;;;;19.30;14.70;;;11.80;99.90;;;;;;5048020;28;20075;-71
2021/10/17 04:49:33;;;;;;;15.93;13.73;;;11.80;99.90;;;;;;5048791;28;20488;-70
2021/10/17 04:52:00;;;;;;;17.33;15.02;;;11.80;99.90;;;;;;5047999;28;20083;-70
2021/10/17 04:54:27;;;;;;;22.30;15.18;;;11.80;99.90;;;;;;5049429;28;20120;-70
2021/10/17 04:56:53;;;;;;;17.85;15.07;;;11.80;99.90;;;;;;5050064;28;20045;-70
2021/10/17 04:59:22;;;;;;;18.88;14.23;;;11.80;99.90;;;;;;5038869;28;20057;-71
2021/10/17 05:01:49;;;;;;;18.67;13.77;;;11.80;99.90;;;;;;5060244;28;20097;-71
2021/10/17 05:04:17;;;;;;;16.95;13.55;;;11.80;99.90;;;;;;5061735;28;20045;-71
2021/10/17 05:06:44;;;;;;;17.85;13.77;;;11.80;99.90;;;;;;5049283;28;20392;-71
2021/10/17 05:09:11;;;;;;;20.23;14.32;;;11.80;99.90;;;;;;5030952;28;20053;-71
2021/10/17 05:11:38;;;;;;;18.60;12.43;;;11.80;99.90;;;;;;5048390;28;20120;-71
2021/10/17 05:14:05;;;;;;;17.30;13.55;;;11.70;99.90;;;;;;5048698;28;20127;-71
2021/10/17 05:16:32;;;;;;;16.20;12.77;;;11.70;99.90;;;;;;5049178;28;20087;-72
2021/10/17 05:19:00;;;;;;;17.75;13.80;;;11.70;99.90;;;;;;5048411;28;20102;-71
2021/10/17 05:21:28;;;;;;;19.65;13.80;;;11.70;99.90;;;;;;5041122;28;20492;-70
2021/10/17 05:23:55;;;;;;;18.90;13.48;;;11.70;99.90;;;;;;5046645;28;20076;-70
2021/10/17 05:26:23;;;;;;;24.08;13.57;;;11.70;99.90;;;;;;5046786;28;20053;-70
2021/10/17 05:28:49;;;;;;;20.80;14.20;;;11.80;99.90;;;;;;5047279;28;20049;-69
2021/10/17 05:31:17;;;;;;;17.70;13.50;;;11.80;99.90;;;;;;5059654;28;20542;-70
2021/10/17 05:33:44;;;;;;;23.85;13.85;;;11.80;99.90;;;;;;5058992;28;20040;-71
2021/10/17 05:36:12;;;;;;;17.33;13.05;;;11.80;99.90;;;;;;5052364;28;20081;-70
2021/10/17 05:38:42;;;;;;;18.58;12.82;;;11.80;99.90;;;;;;5049668;28;20468;-70
2021/10/17 05:41:09;;;;;;;16.10;12.88;;;11.80;99.90;;;;;;5049634;28;20050;-71
2021/10/17 05:43:37;;;;;;;14.95;13.23;;;11.80;99.90;;;;;;5052942;28;20040;-71
2021/10/17 05:46:04;;;;;;;15.55;12.57;;;11.80;99.90;;;;;;5051300;28;20068;-70
2021/10/17 05:48:31;;;;;;;17.05;13.68;;;11.80;99.90;;;;;;5053145;28;20433;-70
2021/10/17 05:50:58;;;;;;;15.68;11.80;;;11.80;99.90;;;;;;5034382;28;20468;-70
2021/10/17 05:53:25;;;;;;;17.65;12.75;;;11.70;99.90;;;;;;5034494;28;20147;-70
2021/10/17 05:55:52;;;;;;;18.92;13.85;;;11.70;99.90;;;;;;5050400;28;20048;-70
2021/10/17 05:58:19;;;;;;;16.35;11.65;;;11.70;99.90;;;;;;5050972;28;20140;-71
2021/10/17 06:00:47;;;;;;;45.47;40.45;;;11.70;99.90;;;;;;5037125;28;20119;-72
2021/10/17 06:03:14;;;;;;;19.63;14.38;;;11.80;99.90;;;;;;5056994;28;20058;-73
2021/10/17 06:05:41;;;;;;;16.10;13.60;;;11.80;99.90;;;;;;5051919;28;20045;-71
2021/10/17 06:08:08;;;;;;;14.43;11.30;;;11.80;99.90;;;;;;5051315;28;20411;-70
2021/10/17 06:10:35;;;;;;;15.07;12.52;;;11.80;99.90;;;;;;5052105;28;20126;-71
2021/10/17 06:13:02;;;;;;;18.83;11.88;;;11.80;99.90;;;;;;5055453;28;20060;-70
2021/10/17 06:15:29;;;;;;;16.05;11.80;;;11.80;99.90;;;;;;5052597;28;20136;-70
2021/10/17 06:17:56;;;;;;;15.30;12.55;;;11.80;99.90;;;;;;5033575;28;20049;-71
2021/10/17 06:20:23;;;;;;;16.02;11.05;;;11.80;99.90;;;;;;5051351;28;20533;-71
2021/10/17 06:22:51;;;;;;;16.73;12.05;;;11.80;99.90;;;;;;5051863;28;20127;-70
2021/10/17 06:25:18;;;;;;;17.05;11.60;;;11.80;99.90;;;;;;5051784;28;20068;-69
2021/10/17 06:27:45;;;;;;;16.27;12.57;;;11.80;99.90;;;;;;5051814;28;20049;-69
2021/10/17 06:30:12;;;;;;;13.68;11.50;;;11.80;99.90;;;;;;5052011;28;20041;-71
2021/10/17 06:32:39;;;;;;;17.20;11.13;;;11.80;99.90;;;;;;5050648;28;20049;-72
2021/10/17 06:35:06;;;;;;;16.75;11.07;;;11.80;99.90;;;;;;5051949;28;20048;-71
2021/10/17 06:37:33;;;;;;;16.55;12.20;;;11.90;99.90;;;;;;5050653;28;20044;-70
2021/10/17 06:40:00;;;;;;;15.95;11.27;;;11.90;99.90;;;;;;5049393;28;20041;-70
2021/10/17 06:42:27;;;;;;;16.40;11.60;;;11.90;99.90;;;;;;5050811;28;20172;-70
2021/10/17 06:44:54;;;;;;;14.82;11.10;;;11.90;99.90;;;;;;5050585;28;20041;-71
2021/10/17 06:47:21;;;;;;;15.55;10.75;;;11.90;99.90;;;;;;5049938;28;20135;-68
2021/10/17 06:49:48;;;;;;;23.63;17.42;;;11.90;99.90;;;;;;5033962;28;20056;-70
2021/10/17 06:52:15;;;;;;;15.93;10.60;;;11.90;99.90;;;;;;5050197;28;20495;-69
2021/10/17 06:54:42;;;;;;;12.90;10.65;;;12.00;99.90;;;;;;5049570;28;20499;-69
2021/10/17 06:57:09;;;;;;;12.23;10.18;;;12.00;99.90;;;;;;5051159;28;20061;-69
2021/10/17 06:59:36;;;;;;;11.27;9.60;;;12.00;99.90;;;;;;5052095;28;20052;-68
2021/10/17 07:02:03;;;;;;;14.68;11.15;;;12.00;99.90;;;;;;5052515;28;20045;-69
2021/10/17 07:04:30;;;;;;;25.40;10.27;;;12.00;99.90;;;;;;5049840;28;20103;-69
2021/10/17 07:06:57;;;;;;;13.02;10.18;;;12.10;99.90;;;;;;5049565;28;20040;-69
2021/10/17 07:09:24;;;;;;;14.27;10.40;;;12.10;99.90;;;;;;5050573;28;20067;-68
2021/10/17 07:11:52;;;;;;;12.68;9.93;;;12.10;99.90;;;;;;5050784;28;20461;-69
2021/10/17 07:14:19;;;;;;;17.90;8.90;;;12.20;99.90;;;;;;5051330;28;20584;-69
2021/10/17 07:16:46;;;;;;;15.73;9.52;;;12.20;99.90;;;;;;5051445;28;20048;-69
2021/10/17 07:19:13;;;;;;;13.68;10.57;;;12.20;99.90;;;;;;5050728;28;20080;-69
2021/10/17 07:21:40;;;;;;;13.95;9.55;;;12.30;99.90;;;;;;5048983;28;20493;-69
2021/10/17 07:24:07;;;;;;;13.82;8.82;;;12.30;99.90;;;;;;5051093;28;20393;-69
2021/10/17 07:26:39;;;;;;;15.63;10.32;;;12.40;99.90;;;;;;5046122;28;20167;-69
2021/10/17 07:29:06;;;;;;;13.68;8.10;;;12.40;99.90;;;;;;5048533;28;20568;-69
2021/10/17 07:31:33;;;;;;;10.32;7.55;;;12.40;99.90;;;;;;5049943;28;20037;-70
2021/10/17 07:34:00;;;;;;;12.90;9.32;;;12.40;99.90;;;;;;5050707;28;20061;-69
2021/10/17 07:36:27;;;;;;;11.80;8.50;;;12.50;99.90;;;;;;5032989;28;20552;-69
2021/10/17 07:38:54;;;;;;;9.43;7.68;;;12.50;99.90;;;;;;5049312;28;20154;-69
2021/10/17 07:41:21;;;;;;;14.20;7.88;;;12.50;99.90;;;;;;5049248;28;20052;-69
2021/10/17 07:43:48;;;;;;;10.23;7.03;;;12.60;99.90;;;;;;5050819;28;20100;-69
2021/10/17 07:46:15;;;;;;;10.45;7.03;;;12.60;99.90;;;;;;5048474;28;20489;-69
2021/10/17 07:48:42;;;;;;;10.00;7.15;;;12.60;99.90;;;;;;5048370;28;20065;-69
2021/10/17 07:51:09;;;;;;;11.85;6.95;;;12.70;99.90;;;;;;5048826;28;20045;-69
2021/10/17 07:53:36;;;;;;;12.05;6.90;;;12.70;99.90;;;;;;5048400;28;20049;-69
2021/10/17 07:56:03;;;;;;;12.93;7.40;;;12.80;99.90;;;;;;5048247;28;21681;-69
2021/10/17 07:58:32;;;;;;;16.15;9.30;;;12.80;99.90;;;;;;5049269;28;20133;-69
2021/10/17 08:00:59;;;;;;;13.38;8.00;;;12.80;99.90;;;;;;5033066;28;20564;-69
2021/10/17 08:03:27;;;;;;;9.55;7.63;;;12.90;99.90;;;;;;5048828;28;20091;-69
2021/10/17 08:05:54;;;;;;;24.25;9.20;;;12.90;99.90;;;;;;5048219;28;20045;-69
2021/10/17 08:08:21;;;;;;;13.23;6.82;;;13.00;99.90;;;;;;5049205;28;20135;-70
2021/10/17 08:10:48;;;;;;;9.10;6.55;;;13.10;99.90;;;;;;5048918;28;20438;-69
2021/10/17 08:13:14;;;;;;;12.55;6.90;;;13.10;99.90;;;;;;5049970;28;20080;-69
2021/10/17 08:15:42;;;;;;;10.00;6.80;;;13.10;99.80;;;;;;5047875;28;20099;-69
2021/10/17 08:18:13;;;;;;;10.48;6.38;;;13.20;99.90;;;;;;5047331;28;20059;-68
2021/10/17 08:20:40;;;;;;;14.38;6.97;;;13.20;99.80;;;;;;5047681;28;20045;-69
2021/10/17 08:23:07;;;;;;;8.77;5.95;;;13.30;99.60;;;;;;5049463;28;20350;-69
2021/10/17 08:25:35;;;;;;;10.25;6.55;;;13.30;99.40;;;;;;5048022;28;20055;-69
2021/10/17 08:28:03;;;;;;;9.85;5.85;;;13.30;99.30;;;;;;5047031;28;20061;-69
2021/10/17 08:30:30;;;;;;;13.38;6.82;;;13.30;99.40;;;;;;5049360;28;20754;-69
2021/10/17 08:32:57;;;;;;;10.93;6.30;;;13.40;99.40;;;;;;5047840;28;20484;-70
2021/10/17 08:35:24;;;;;;;11.57;6.80;;;13.40;99.20;;;;;;5049302;28;20489;-69
2021/10/17 08:37:51;;;;;;;10.00;6.80;;;13.40;99.30;;;;;;5048027;28;20052;-69
2021/10/17 08:40:18;;;;;;;10.77;6.45;;;13.40;99.30;;;;;;5049133;28;20091;-70
2021/10/17 08:42:45;;;;;;;10.55;5.95;;;13.50;99.20;;;;;;5048451;28;20048;-69
2021/10/17 08:45:12;;;;;;;9.80;6.80;;;13.50;99.00;;;;;;5033092;28;20048;-69
2021/10/17 08:47:39;;;;;;;10.50;5.93;;;13.50;99.00;;;;;;5047240;28;20041;-69
2021/10/17 08:50:07;;;;;;;8.85;6.15;;;13.50;99.10;;;;;;5045671;28;20084;-69
2021/10/17 08:52:34;;;;;;;7.97;5.20;;;13.60;99.10;;;;;;5048872;28;20135;-69
2021/10/17 08:55:01;;;;;;;9.40;6.15;;;13.60;99.10;;;;;;5047391;28;20059;-68
2021/10/17 08:57:28;;;;;;;19.55;13.35;;;13.60;99.20;;;;;;5031465;28;20135;-67
2021/10/17 08:59:56;;;;;;;10.35;7.40;;;13.60;98.70;;;;;;5046933;28;20127;-68
2021/10/17 09:02:23;;;;;;;10.88;6.90;;;13.60;98.60;;;;;;5029795;28;20049;-69
2021/10/17 09:05:06;;;;;;;11.90;5.68;;;13.60;98.50;;;;;;5015095;28;20059;-74
2021/10/17 09:07:33;;;;;;;9.18;4.97;;;13.70;98.40;;;;;;5031106;28;20137;-74
2021/10/17 09:10:06;;;;;;;66.80;45.25;;;13.70;98.40;;;;;;5015427;28;20126;-71
2021/10/17 09:12:33;;;;;;;11.90;6.38;;;13.70;98.30;;;;;;5047777;28;20056;-79
2021/10/17 09:15:22;;;;;;;8.63;5.85;;;13.70;97.80;;;;;;5049837;28;20075;-72
2021/10/17 09:18:02;;;;;;;5.22;4.57;;;13.70;98.00;;;;;;5035745;28;20124;-72
2021/10/17 09:20:29;;;;;;;9.52;5.57;;;13.80;97.80;;;;;;5047884;28;20139;-71
2021/10/17 09:23:05;;;;;;;7.70;5.50;;;13.80;97.80;;;;;;5046080;28;20092;-74
2021/10/17 09:25:33;;;;;;;9.32;5.03;;;13.80;97.80;;;;;;5037679;28;20416;-72
2021/10/17 09:28:01;;;;;;;9.83;4.90;;;13.80;97.70;;;;;;5053139;28;20467;-74
2021/10/17 09:30:27;;;;;;;7.72;4.85;;;13.80;97.70;;;;;;5045392;28;20286;-74
2021/10/17 09:33:18;;;;;;;7.93;5.20;;;13.90;97.20;;;;;;5048678;28;20401;-74
2021/10/17 09:35:45;;;;;;;9.15;5.25;;;13.90;97.00;;;;;;5021733;28;20045;-73
2021/10/17 09:38:17;;;;;;;8.93;4.97;;;13.80;97.10;;;;;;5043675;28;20463;-74
2021/10/17 09:40:46;;;;;;;7.72;4.20;;;13.90;97.00;;;;;;5021072;28;20076;-73
2021/10/17 09:43:25;;;;;;;6.43;4.03;;;13.90;97.10;;;;;;5031858;28;20045;-73
2021/10/17 09:46:09;;;;;;;;;;;13.90;97.20;;;;;;5044686;28;20167;-78
2021/10/17 09:48:36;;;;;;;9.60;4.75;;;14.00;97.10;;;;;;5048847;28;19948;-74
2021/10/17 09:51:04;;;;;;;8.38;4.78;;;14.00;97.40;;;;;;5045459;28;20063;-74
2021/10/17 09:53:46;;;;;;;9.38;4.63;;;14.00;96.90;;;;;;5043768;28;20103;-75
2021/10/17 09:56:33;;;;;;;57.90;42.40;;;14.10;96.90;;;;;;5045461;28;20045;-70
2021/10/17 09:59:07;;;;;;;10.38;8.18;;;14.20;97.10;;;;;;5026475;28;20465;-71
2021/10/17 10:01:36;;;;;;;8.55;5.53;;;14.20;96.60;;;;;;5046830;28;20567;-74
2021/10/17 10:04:05;;;;;;;8.77;4.97;;;14.30;96.60;;;;;;5015487;28;20457;-72
2021/10/17 10:06:33;;;;;;;8.05;5.45;;;14.30;96.70;;;;;;5046581;28;20055;-69
2021/10/17 10:09:02;;;;;;;9.32;4.07;;;14.40;95.90;;;;;;5051560;28;20044;-76
2021/10/17 10:11:30;;;;;;;16.85;12.32;;;14.50;96.40;;;;;;5031029;28;20451;-79
2021/10/17 10:14:02;;;;;;;10.85;5.43;;;14.60;95.60;;;;;;5046814;28;20541;-76
2021/10/17 10:16:29;;;;;;;12.40;4.30;;;14.70;95.50;;;;;;5046305;28;20049;-74
2021/10/17 10:19:12;;;;;;;7.20;3.83;;;14.80;95.40;;;;;;5049941;28;20102;-74
2021/10/17 10:21:39;;;;;;;10.48;6.80;;;14.80;95.40;;;;;;5048202;28;20078;-73
2021/10/17 10:24:07;;;;;;;25.80;18.92;;;14.90;95.00;;;;;;5019063;28;20064;-72
2021/10/17 10:26:35;;;;;;;28.37;21.77;;;14.90;95.20;;;;;;5049500;28;20076;-74
2021/10/17 10:29:02;;;;;;;8.13;4.88;;;14.90;95.30;;;;;;5033909;28;20059;-72
2021/10/17 10:31:52;;;;;;;6.50;4.38;;;15.00;94.90;;;;;;5051826;28;20103;-71
2021/10/17 10:34:22;;;;;;;8.35;4.28;;;15.00;95.30;;;;;;5037748;28;20103;-75
2021/10/17 10:36:53;;;;;;;22.27;15.77;;;15.00;94.50;;;;;;5045240;28;20056;-70
2021/10/17 10:39:21;;;;;;;15.73;11.05;;;14.90;95.10;;;;;;5054810;28;20496;-68
2021/10/17 10:42:01;;;;;;;7.20;4.30;;;15.00;94.70;;;;;;5053895;28;20155;-74
2021/10/17 10:44:31;;;;;;;8.75;4.60;;;15.00;94.40;;;;;;5050139;28;20053;-74
2021/10/17 10:47:19;;;;;;;10.27;5.22;;;15.00;95.20;;;;;;5050609;28;20088;-75
2021/10/17 10:49:47;;;;;;;6.82;3.75;;;15.00;94.40;;;;;;5052562;28;20125;-75
2021/10/17 10:52:23;;;;;;;7.90;4.15;;;15.00;94.60;;;;;;5044166;28;20048;-75
2021/10/17 10:54:51;;;;;;;12.13;4.75;;;15.00;94.80;;;;;;5058595;28;20500;-75
2021/10/17 10:57:22;;;;;;;5.60;3.67;;;15.00;94.90;;;;;;5050869;28;20053;-72
2021/10/17 11:00:00;;;;;;;8.48;4.15;;;15.10;94.70;;;;;;5050915;28;20089;-75
2021/10/17 11:02:28;;;;;;;7.07;3.47;;;15.10;95.00;;;;;;5050092;28;20492;-75
2021/10/17 11:04:56;;;;;;;5.75;3.75;;;15.10;94.20;;;;;;5050330;28;20457;-75
2021/10/17 11:07:34;;;;;;;13.60;5.93;;;15.20;94.50;;;;;;5049420;28;20144;-74
2021/10/17 11:10:20;;;;;;;13.45;9.95;;;15.20;93.90;;;;;;5075565;28;20049;-71
2021/10/17 11:12:48;;;;;;;9.60;4.97;;;15.30;93.60;;;;;;5055335;28;20141;-73
2021/10/17 11:15:16;;;;;;;8.38;4.22;;;15.30;93.60;;;;;;5049221;28;20045;-73
2021/10/17 11:17:48;;;;;;;8.53;4.33;;;15.30;94.10;;;;;;5048011;28;20385;-72
2021/10/17 11:20:17;;;;;;;7.18;3.53;;;15.20;93.70;;;;;;5048104;28;20049;-68
2021/10/17 11:22:45;;;;;;;8.27;4.15;;;15.30;94.20;;;;;;5048313;28;20127;-65
2021/10/17 11:25:16;;;;;;;7.10;4.80;;;15.30;93.80;;;;;;5048888;28;20136;-66
2021/10/17 11:27:43;;;;;;;5.30;3.85;;;15.30;93.90;;;;;;5048421;28;20060;-68
2021/10/17 11:30:30;;;;;;;13.35;4.65;;;15.30;93.70;;;;;;5049521;28;20056;-68
2021/10/17 11:32:58;;;;;;;6.45;4.78;;;15.30;94.20;;;;;;5048107;28;20101;-67
2021/10/17 11:35:27;;;;;;;7.32;3.45;;;15.30;94.00;;;;;;5048876;28;20053;-65
2021/10/17 11:37:54;;;;;;;6.45;3.47;;;15.40;94.40;;;;;;5049350;28;20682;-68
2021/10/17 11:40:21;;;;;;;7.15;3.45;;;15.40;94.00;;;;;;5048244;28;20091;-66
2021/10/17 11:42:52;;;;;;;7.90;3.40;;;15.50;93.80;;;;;;5047758;28;20148;-68
2021/10/17 11:45:22;;;;;;;50.95;45.63;;;15.50;93.80;;;;;;5048115;28;20063;-68
2021/10/17 11:47:49;;;;;;;15.10;9.18;;;15.60;93.60;;;;;;5047878;28;20071;-71
2021/10/17 11:50:27;;;;;;;5.30;4.55;;;15.60;92.80;;;;;;5047506;28;20051;-70
2021/10/17 11:52:55;;;;;;;8.43;4.18;;;15.80;92.90;;;;;;5014844;28;20045;-69
2021/10/17 11:55:44;;;;;;;6.93;3.55;;;15.90;92.30;;;;;;5028050;28;20606;-69
2021/10/17 11:58:15;;;;;;;5.63;3.25;;;15.90;91.60;;;;;;5047139;28;20140;-67
2021/10/17 12:00:44;;;;;;;12.63;3.40;;;16.10;90.50;;;;;;5048227;28;20099;-68
2021/10/17 12:03:11;;;;;;;3.97;2.45;;;16.10;91.00;;;;;;5030386;28;20143;-67
2021/10/17 12:05:43;;;;;;;7.47;3.03;;;16.00;90.70;;;;;;5047367;28;20074;-69
2021/10/17 12:08:21;;;;;;;4.82;2.78;;;15.90;90.70;;;;;;5047768;28;20076;-71
2021/10/17 12:11:05;;;;;;;56.72;46.80;;;15.80;90.50;;;;;;5009379;28;20507;-69
2021/10/17 12:13:38;;;;;;;44.35;32.58;;;15.80;90.80;;;;;;5028203;28;20145;-72
2021/10/17 12:16:13;;;;;;;27.60;23.55;;;15.90;90.90;;;;;;5032557;28;20045;-74
2021/10/17 12:18:44;;;;;;;23.02;12.70;;;15.90;90.60;;;;;;5044276;28;20556;-73
2021/10/17 12:25:24;;;;;;;7.43;2.85;;;16.00;89.70;;;;;;5065380;28;20395;-76
2021/10/17 12:27:51;;;;;;;5.45;2.60;;;16.10;88.50;;;;;;5061458;28;20044;-74
2021/10/17 12:30:33;;;;;;;9.50;3.25;;;16.00;89.90;;;;;;5063876;28;20042;-78
2021/10/17 12:33:00;;;;;;;5.65;2.40;;;16.10;88.20;;;;;;5065422;28;20075;-74
2021/10/17 12:35:32;;;;;;;6.57;2.83;;;16.10;88.40;;;;;;5049261;28;20071;-72
2021/10/17 12:38:13;;;;;;;6.75;2.60;;;16.10;89.10;;;;;;5066259;28;20080;-73
2021/10/17 12:41:07;;;;;;;4.07;2.53;;;16.20;89.00;;;;;;5066265;28;20059;-71
2021/10/17 12:43:36;;;;;;;4.43;3.10;;;16.20;88.60;;;;;;5068274;28;20487;-73
2021/10/17 12:46:09;;;;;;;16.77;13.68;;;16.20;87.70;;;;;;5067081;28;20057;-75